Time;durP1;ratioP1;P1;durP2;ratioP2;P2;SDS_P1;SDS_P2;PMS_P1;PMS_P2;Temp;Humidity;BMP_temperature;BMP_pressure;BME280_temperature;BME280_humidity;BME280_pressure;Samples;Min_cycle;Max_cycle;Signal;HPM_P1;HPM_P2
2022/12/05 00:02:21;;;;;;;42.00;21.80;;;;;;;2.52;98.30;100542.59;5076397;28;20773;-80
2022/12/05 00:04:47;;;;;;;32.37;21.40;;;;;;;2.57;98.00;100534.94;5076244;28;20718;-79
2022/12/05 00:07:14;;;;;;;33.27;21.63;;;;;;;2.58;98.01;100536.69;5075987;28;20208;-80
2022/12/05 00:09:41;;;;;;;32.17;20.33;;;;;;;2.57;97.53;100547.81;5075877;28;20205;-80
2022/12/05 00:12:08;;;;;;;32.60;22.10;;;;;;;2.58;97.47;100536.69;5075170;28;20739;-80
2022/12/05 00:14:34;;;;;;;36.33;21.40;;;;;;;2.53;97.83;100540.88;5076308;28;20607;-79
2022/12/05 00:17:01;;;;;;;36.30;21.67;;;;;;;2.50;97.67;100543.44;5075928;28;20592;-80
2022/12/05 00:19:27;;;;;;;34.10;20.77;;;;;;;2.49;97.53;100531.38;5075880;28;20684;-80
2022/12/05 00:21:54;;;;;;;33.03;20.47;;;;;;;2.55;98.04;100537.47;5075155;28;20232;-80
2022/12/05 00:24:20;;;;;;;34.77;21.53;;;;;;;2.57;97.63;100534.94;5076203;28;20249;-79
2022/12/05 00:26:48;;;;;;;39.10;22.20;;;;;;;2.62;97.80;100535.88;5075792;28;20205;-79
2022/12/05 00:29:14;;;;;;;41.17;21.33;;;;;;;2.62;98.05;100537.56;5075891;28;20207;-80
2022/12/05 00:31:41;;;;;;;32.33;19.67;;;;;;;2.64;97.69;100530.75;5075448;28;20210;-80
2022/12/05 00:34:08;;;;;;;34.40;21.77;;;;;;;2.59;97.93;100533.25;5075893;28;20276;-79
2022/12/05 00:36:35;;;;;;;35.30;21.40;;;;;;;2.65;97.43;100533.31;5075592;28;20216;-79
2022/12/05 00:39:06;;;;;;;36.03;20.47;;;;;;;2.68;97.39;100537.69;5075789;28;20342;-80
2022/12/05 00:41:33;;;;;;;39.27;22.30;;;;;;;2.64;97.73;100541.91;5074824;28;20715;-80
2022/12/05 00:44:02;;;;;;;37.13;22.03;;;;;;;2.67;97.44;100541.94;5075436;28;20210;-80
2022/12/05 00:46:30;;;;;;;37.97;21.00;;;;;;;2.63;97.96;100534.16;5075455;28;20206;-79
2022/12/05 00:48:58;;;;;;;37.20;20.73;;;;;;;2.64;97.69;100538.47;5074912;28;20201;-80
2022/12/05 00:51:27;;;;;;;38.73;21.80;;;;;;;2.62;97.88;100541.03;5074858;28;20212;-80
2022/12/05 00:53:54;;;;;;;36.80;21.60;;;;;;;2.63;97.78;100549.63;5075089;28;20223;-79
2022/12/05 00:56:22;;;;;;;34.33;20.70;;;;;;;2.68;97.57;100541.13;5075724;28;20216;-80
2022/12/05 00:58:50;;;;;;;37.50;20.77;;;;;;;2.65;98.16;100537.63;5075030;28;20291;-79
2022/12/05 01:01:20;;;;;;;36.17;22.03;;;;;;;2.62;97.74;100541.03;5074991;28;20201;-80
2022/12/05 01:03:47;;;;;;;37.77;21.17;;;;;;;2.59;98.08;100534.09;5075674;28;20202;-80
2022/12/05 01:06:15;;;;;;;34.60;20.83;;;;;;;2.68;97.49;100535.09;5076066;28;20202;-80
2022/12/05 01:08:42;;;;;;;35.53;20.83;;;;;;;2.70;97.59;100547.16;5075535;28;20206;-80
2022/12/05 01:11:10;;;;;;;33.23;20.33;;;;;;;2.71;97.17;100540.28;5076403;28;20700;-80
2022/12/05 01:13:36;;;;;;;37.87;21.07;;;;;;;2.72;97.61;100542.03;5075407;28;20204;-80
2022/12/05 01:16:04;;;;;;;37.10;20.77;;;;;;;2.74;97.49;100553.22;5075626;28;20217;-80
2022/12/05 01:18:32;;;;;;;35.93;19.27;;;;;;;2.75;97.46;100547.22;5075012;28;20704;-79
2022/12/05 01:20:59;;;;;;;39.13;21.57;;;;;;;2.71;97.10;100543.72;5074611;28;20224;-79
2022/12/05 01:23:25;;;;;;;40.67;20.83;;;;;;;2.69;97.50;100535.09;5074923;28;20225;-79
2022/12/05 01:25:52;;;;;;;31.63;19.77;;;;;;;2.71;97.29;100540.28;5074903;28;20238;-80
2022/12/05 01:28:19;;;;;;;37.00;21.07;;;;;;;2.70;97.22;100547.16;5075195;28;20245;-80
2022/12/05 01:30:48;;;;;;;33.93;21.13;;;;;;;2.66;97.33;100542.81;5075415;28;20197;-79
2022/12/05 01:33:16;;;;;;;27.80;19.07;;;;;;;2.66;97.93;100547.09;5074977;28;20702;-79
2022/12/05 01:35:43;;;;;;;31.23;19.77;;;;;;;2.65;98.11;100532.47;5075298;28;20236;-81
2022/12/05 01:38:11;;;;;;;26.87;19.17;;;;;;;2.70;98.25;100529.13;5074647;28;20199;-81
2022/12/05 01:40:38;;;;;;;29.67;19.43;;;;;;;2.70;98.04;100526.53;5074409;28;20209;-80
2022/12/05 01:43:06;;;;;;;31.30;19.20;;;;;;;2.71;97.57;100535.13;5074933;28;20235;-80
2022/12/05 01:45:36;;;;;;;31.20;19.57;;;;;;;2.73;97.42;100536.03;5074518;28;20596;-78
2022/12/05 01:48:05;;;;;;;26.57;19.37;;;;;;;2.76;97.34;100541.22;5075165;28;20209;-80
2022/12/05 01:50:33;;;;;;;35.00;19.97;;;;;;;2.78;97.11;100544.69;5074361;28;20582;-81
2022/12/05 01:53:02;;;;;;;36.87;20.63;;;;;;;2.75;97.21;100542.91;5077592;28;20213;-80
2022/12/05 01:55:28;;;;;;;27.97;19.03;;;;;;;2.75;97.57;100536.91;5078625;28;20237;-80
2022/12/05 01:57:57;;;;;;;35.10;20.33;;;;;;;2.77;97.14;100535.22;5078578;28;20213;-79
2022/12/05 02:00:23;;;;;;;32.40;21.10;;;;;;;2.74;97.59;100533.47;5078081;28;20211;-80
2022/12/05 02:02:53;;;;;;;36.17;20.47;;;;;;;2.79;97.34;100533.53;5077888;28;20321;-80
2022/12/05 02:05:23;;;;;;;29.90;20.53;;;;;;;2.82;97.41;100532.72;5078083;28;20705;-80
2022/12/05 02:07:49;;;;;;;24.73;17.83;;;;;;;2.81;97.44;100534.41;5078622;28;20636;-80
2022/12/05 02:10:18;;;;;;;34.40;19.73;;;;;;;2.82;97.21;100537.88;5077953;28;20205;-79
2022/12/05 02:12:45;;;;;;;31.30;18.90;;;;;;;2.80;97.04;100548.16;5077622;28;20216;-80
2022/12/05 02:15:26;;;;;;;28.97;19.30;;;;;;;2.81;97.01;100551.59;5077820;28;20231;-80
2022/12/05 02:18:04;;;;;;;31.90;18.97;;;;;;;2.81;96.83;100549.88;5077807;28;20202;-79
2022/12/05 02:20:42;;;;;;;30.57;19.13;;;;;;;2.76;96.87;100551.53;5077697;28;20202;-79
2022/12/05 02:23:32;;;;;;;29.17;18.60;;;;;;;2.77;97.48;100536.09;5078168;28;20229;-80
2022/12/05 02:26:22;;;;;;;32.53;19.07;;;;;;;2.75;97.41;100532.59;5077566;28;20246;-79
2022/12/05 02:29:13;;;;;;;22.00;17.37;;;;;;;2.82;97.82;100533.59;5077870;28;20202;-79
2022/12/05 02:31:49;;;;;;;27.63;17.63;;;;;;;2.80;97.46;100530.13;5077781;28;20209;-78
2022/12/05 02:34:23;;;;;;;30.10;19.13;;;;;;;2.76;97.60;100534.34;5077343;28;20228;-80
2022/12/05 02:36:57;;;;;;;29.00;17.07;;;;;;;2.80;97.76;100531.84;5077684;28;20209;-79
2022/12/05 02:39:29;;;;;;;25.93;17.97;;;;;;;2.79;97.77;100528.38;5078024;28;20211;-79
2022/12/05 02:42:03;;;;;;;27.37;18.80;;;;;;;2.80;97.39;100530.13;5076918;28;20205;-80
2022/12/05 02:44:35;;;;;;;22.93;17.63;;;;;;;2.81;97.87;100526.69;5077364;28;20232;-80
2022/12/05 02:47:07;;;;;;;25.33;17.60;;;;;;;2.82;97.78;100531.00;5077858;28;20239;-80
2022/12/05 02:49:35;;;;;;;22.40;17.37;;;;;;;2.81;97.21;100524.09;5077458;28;20302;-80
2022/12/05 02:52:05;;;;;;;24.00;19.23;;;;;;;2.80;97.50;100526.69;5077159;28;20209;-79
2022/12/05 02:54:36;;;;;;;28.73;17.53;;;;;;;2.74;97.91;100525.75;5077836;28;20735;-79
2022/12/05 02:57:04;;;;;;;27.40;18.03;;;;;;;2.77;97.90;100523.22;5077452;28;20197;-79
2022/12/05 02:59:30;;;;;;;29.90;18.33;;;;;;;2.75;98.23;100505.97;5077262;28;20213;-80
2022/12/05 03:01:57;;;;;;;26.23;18.07;;;;;;;2.81;98.39;100507.78;5076389;28;20206;-81
2022/12/05 03:04:27;;;;;;;24.87;17.50;;;;;;;2.85;97.92;100512.13;5076504;28;20231;-81
2022/12/05 03:06:58;;;;;;;24.87;17.87;;;;;;;2.86;97.62;100513.88;5076933;28;20206;-80
2022/12/05 03:09:30;;;;;;;23.50;17.40;;;;;;;2.86;97.42;100519.03;5077182;28;20205;-80
2022/12/05 03:12:02;;;;;;;23.10;16.53;;;;;;;2.88;97.21;100523.34;5077152;28;20571;-79
2022/12/05 03:14:33;;;;;;;20.63;16.47;;;;;;;2.88;97.20;100532.81;5077276;28;20230;-80
2022/12/05 03:17:02;;;;;;;19.90;15.80;;;;;;;2.88;97.03;100535.38;5077685;28;20213;-81
2022/12/05 03:19:36;;;;;;;18.27;15.70;;;;;;;2.85;97.14;100536.19;5078006;28;20209;-78
2022/12/05 03:22:08;;;;;;;18.53;16.50;;;;;;;2.86;97.50;100537.06;5076711;28;20205;-80
2022/12/05 03:24:40;;;;;;;21.40;16.50;;;;;;;2.87;97.19;100541.38;5078027;28;20223;-80
2022/12/05 03:27:14;;;;;;;19.07;15.73;;;;;;;2.84;97.14;100539.63;5077894;28;20212;-82
2022/12/05 03:29:47;;;;;;;18.47;15.73;;;;;;;2.83;97.74;100530.16;5076833;28;20227;-81
2022/12/05 03:32:23;;;;;;;19.97;15.60;;;;;;;2.82;97.64;100535.31;5076392;28;20217;-80
2022/12/05 03:35:03;;;;;;;19.67;14.80;;;;;;;2.86;97.47;100524.19;5077428;28;20251;-78
2022/12/05 03:37:38;;;;;;;17.53;15.73;;;;;;;2.85;97.34;100522.44;5077356;28;20217;-81
2022/12/05 03:40:11;;;;;;;19.23;14.50;;;;;;;2.84;97.26;100529.31;5076662;28;20212;-81
2022/12/05 03:42:43;;;;;;;15.43;13.83;;;;;;;2.87;97.09;100521.59;5076590;28;20742;-80
2022/12/05 03:45:15;;;;;;;21.33;15.57;;;;;;;2.82;97.64;100522.41;5076483;28;20909;-81
2022/12/05 03:47:48;;;;;;;18.03;14.53;;;;;;;2.84;97.57;100513.00;5076250;28;20206;-81
2022/12/05 03:50:22;;;;;;;19.00;13.90;;;;;;;2.79;97.48;100518.06;5076005;28;20212;-80
2022/12/05 03:52:53;;;;;;;15.93;14.23;;;;;;;2.80;97.64;100513.78;5076640;28;20204;-79
2022/12/05 03:55:23;;;;;;;16.30;14.50;;;;;;;2.83;97.80;100514.69;5076444;28;20610;-81
2022/12/05 03:57:54;;;;;;;16.27;14.57;;;;;;;2.83;97.80;100513.81;5076981;28;20221;-80
2022/12/05 04:00:23;;;;;;;16.07;14.07;;;;;;;2.83;97.22;100516.41;5075965;28;20205;-80
2022/12/05 04:02:55;;;;;;;15.30;13.80;;;;;;;2.79;97.83;100518.06;5076181;28;20237;-81
2022/12/05 04:05:28;;;;;;;16.90;14.20;;;;;;;2.82;97.87;100514.69;5076147;28;20229;-81
2022/12/05 04:07:58;;;;;;;15.90;14.17;;;;;;;2.85;97.96;100517.28;5076720;28;20205;-81
2022/12/05 04:10:31;;;;;;;17.90;14.70;;;;;;;2.84;97.74;100510.41;5076514;28;20209;-80
2022/12/05 04:13:16;;;;;;;20.63;15.17;;;;;;;2.82;97.89;100509.53;5076252;28;20204;-80
2022/12/05 04:18:32;;;;;;;14.97;13.37;;;;;;;2.81;97.52;100521.53;5076320;28;20267;-79
2022/12/05 04:25:31;;;;;;;15.23;13.73;;;;;;;2.80;97.10;100518.94;5076242;28;20259;-79
2022/12/05 04:26:35;;;;;;;14.77;13.17;;;;;;;2.76;97.51;100518.03;5075926;28;20316;-79
2022/12/05 04:29:09;;;;;;;15.67;13.47;;;;;;;2.75;97.15;100524.03;5075603;28;20214;-80
2022/12/05 04:31:41;;;;;;;15.33;13.73;;;;;;;2.74;97.03;100525.75;5075500;28;20208;-79
2022/12/05 04:34:10;;;;;;;14.20;12.90;;;;;;;2.70;96.78;100521.38;5075623;28;20247;-79
2022/12/05 04:36:42;;;;;;;15.50;13.67;;;;;;;2.64;96.90;100526.47;5076012;28;20212;-80
2022/12/05 04:39:12;;;;;;;14.90;13.40;;;;;;;2.63;96.89;100529.88;5076559;28;20200;-80
2022/12/05 04:41:42;;;;;;;15.93;13.67;;;;;;;2.63;96.53;100535.00;5075311;28;20201;-80
2022/12/05 04:44:12;;;;;;;15.20;13.80;;;;;;;2.64;96.95;100531.59;5075653;28;20770;-80
2022/12/05 04:46:42;;;;;;;14.90;13.47;;;;;;;2.63;96.70;100536.72;5075662;28;20220;-79
2022/12/05 04:49:11;;;;;;;14.13;12.73;;;;;;;2.61;97.17;100531.56;5075921;28;20243;-80
2022/12/05 04:51:41;;;;;;;14.53;13.03;;;;;;;2.60;96.91;100532.41;5076210;28;20201;-79
2022/12/05 04:54:14;;;;;;;15.07;13.47;;;;;;;2.64;97.01;100536.75;5077128;28;20607;-80
2022/12/05 04:56:43;;;;;;;14.57;13.00;;;;;;;2.66;96.94;100529.06;5077129;28;20212;-80
2022/12/05 04:59:10;;;;;;;14.07;12.57;;;;;;;2.66;96.97;100527.34;5076820;28;20585;-80
2022/12/05 05:01:41;;;;;;;14.83;13.23;;;;;;;2.69;96.69;100529.09;5085310;28;20621;-80
2022/12/05 05:04:12;;;;;;;14.00;12.47;;;;;;;2.68;96.72;100532.53;5081961;28;20224;-81
2022/12/05 05:06:41;;;;;;;14.43;13.00;;;;;;;2.70;96.72;100530.84;5082689;28;20201;-81
2022/12/05 05:09:08;;;;;;;13.77;12.30;;;;;;;2.66;96.90;100535.06;5080936;28;20205;-81
2022/12/05 05:11:36;;;;;;;15.27;13.23;;;;;;;2.69;96.92;100531.66;5081819;28;20204;-81
2022/12/05 05:14:03;;;;;;;13.97;12.67;;;;;;;2.65;96.41;100533.31;5080739;28;20694;-80
2022/12/05 05:16:34;;;;;;;15.40;13.73;;;;;;;2.63;96.63;100534.16;5077100;28;20216;-79
2022/12/05 05:19:00;;;;;;;14.40;12.90;;;;;;;2.63;96.72;100541.88;5076526;28;20683;-81
2022/12/05 05:21:29;;;;;;;14.40;13.07;;;;;;;2.59;96.73;100541.81;5075744;28;20587;-80
2022/12/05 05:23:57;;;;;;;14.50;13.20;;;;;;;2.61;96.49;100538.44;5076418;28;20220;-80
2022/12/05 05:26:24;;;;;;;15.27;13.37;;;;;;;2.63;96.65;100540.16;5078671;28;20607;-80
2022/12/05 05:28:51;;;;;;;15.93;14.40;;;;;;;2.60;96.28;100545.28;5081532;28;20211;-79
2022/12/05 05:31:19;;;;;;;15.50;13.87;;;;;;;2.52;96.76;100546.88;5080737;28;20593;-78
2022/12/05 05:33:48;;;;;;;15.13;13.60;;;;;;;2.55;96.97;100547.78;5088810;22;20251;-83
2022/12/05 05:36:15;;;;;;;17.57;15.20;;;;;;;2.55;96.76;100542.63;5056340;28;20211;-83
2022/12/05 05:38:43;;;;;;;17.53;15.13;;;;;;;2.57;96.57;100548.66;5056478;28;20288;-82
2022/12/05 05:41:15;;;;;;;16.60;14.93;;;;;;;2.58;95.90;100555.56;5056391;28;20220;-82
2022/12/05 05:43:42;;;;;;;15.50;14.10;;;;;;;2.52;95.68;100567.50;5056056;28;20727;-81
2022/12/05 05:46:09;;;;;;;15.30;12.50;;;;;;;2.52;96.45;100563.22;5056621;28;20205;-83
2022/12/05 05:48:35;;;;;;;14.37;12.30;;;;;;;2.51;96.56;100566.63;5055785;28;20213;-81
2022/12/05 05:51:03;;;;;;;13.63;12.33;;;;;;;2.50;96.42;100574.34;5056439;28;20217;-80
2022/12/05 05:53:30;;;;;;;13.60;12.27;;;;;;;2.43;96.46;100573.34;5056247;28;20232;-80
2022/12/05 05:55:56;;;;;;;13.00;11.63;;;;;;;2.39;96.26;100569.84;5056271;28;20676;-81
2022/12/05 05:58:24;;;;;;;13.57;12.13;;;;;;;2.38;96.79;100567.28;5056259;28;20217;-81
2022/12/05 06:00:50;;;;;;;13.67;12.37;;;;;;;2.30;96.68;100567.16;5057210;28;20209;-79
2022/12/05 06:03:17;;;;;;;13.03;11.70;;;;;;;2.37;96.48;100561.25;5057138;28;20237;-80
2022/12/05 06:05:43;;;;;;;14.57;13.03;;;;;;;2.33;96.42;100571.47;5056863;28;20209;-82
2022/12/05 06:08:10;;;;;;;13.23;11.93;;;;;;;2.38;95.69;100567.28;5056430;28;20209;-81
2022/12/05 06:10:38;;;;;;;13.17;11.87;;;;;;;2.40;95.26;100581.06;5056055;28;20208;-80
2022/12/05 06:13:04;;;;;;;13.67;12.33;;;;;;;2.33;95.21;100597.22;5056011;28;20229;-81
2022/12/05 06:15:32;;;;;;;13.37;12.00;;;;;;;2.35;95.52;100598.13;5056586;28;20214;-82
2022/12/05 06:17:58;;;;;;;14.83;12.67;;;;;;;2.34;94.91;100594.69;5056989;28;20218;-82
2022/12/05 06:20:25;;;;;;;13.57;12.17;;;;;;;2.25;95.37;100597.09;5056636;28;20586;-82
2022/12/05 06:22:51;;;;;;;14.80;11.47;;;;;;;2.20;95.56;100593.59;5057342;28;20236;-82
2022/12/05 06:25:18;;;;;;;14.07;12.23;;;;;;;2.18;95.64;100598.72;5056722;28;20210;-82
2022/12/05 06:27:44;;;;;;;13.73;11.93;;;;;;;2.14;95.38;100599.50;5057278;28;20209;-83
2022/12/05 06:30:11;;;;;;;13.53;12.23;;;;;;;2.14;95.74;100588.31;5056848;28;20581;-83
2022/12/05 06:32:39;;;;;;;15.00;13.17;;;;;;;2.13;95.97;100594.31;5055280;28;20211;-80
2022/12/05 06:35:14;;;;;;;15.23;12.97;;;;;;;2.14;95.42;100590.88;5053833;28;20194;-81
2022/12/05 06:37:40;;;;;;;13.87;12.50;;;;;;;2.13;95.85;100591.75;5054157;28;20352;-81
2022/12/05 06:40:07;;;;;;;13.70;12.03;;;;;;;2.16;95.58;100600.38;5056536;28;20193;-81
2022/12/05 06:42:34;;;;;;;12.87;11.63;;;;;;;2.20;94.98;100609.03;5056544;28;20207;-82
2022/12/05 06:45:01;;;;;;;12.83;11.57;;;;;;;2.23;95.01;100616.81;5057080;28;20232;-81
2022/12/05 06:47:27;;;;;;;12.60;11.30;;;;;;;2.21;94.69;100627.94;5057195;28;20208;-81
2022/12/05 06:49:55;;;;;;;12.17;11.07;;;;;;;2.18;94.38;100632.19;5056494;28;20202;-79
2022/12/05 06:52:21;;;;;;;12.70;11.53;;;;;;;2.18;94.07;100633.88;5055830;28;20199;-80
2022/12/05 06:54:48;;;;;;;12.93;11.70;;;;;;;2.15;94.56;100639.84;5056942;28;20735;-81
2022/12/05 06:57:15;;;;;;;15.27;13.83;;;;;;;2.12;94.92;100637.22;5055122;28;20230;-80
2022/12/05 06:59:41;;;;;;;19.93;17.83;;;;;;;2.06;94.90;100633.66;5053893;28;20230;-82
2022/12/05 07:02:13;;;;;;;18.97;17.07;;;;;;;2.07;94.90;100641.41;5056104;28;20213;-81
2022/12/05 07:04:40;;;;;;;21.13;17.30;;;;;;;2.04;95.29;100638.75;5056470;28;20229;-80
2022/12/05 07:07:08;;;;;;;15.13;13.63;;;;;;;2.11;95.36;100634.63;5056769;28;20193;-80
2022/12/05 07:09:47;;;;;;;15.47;13.87;;;;;;;2.06;95.43;100631.97;5055785;28;20233;-80
2022/12/05 07:12:18;;;;;;;14.83;12.47;;;;;;;2.10;95.17;100638.91;5055495;28;20711;-80
2022/12/05 07:14:45;;;;;;;13.23;11.93;;;;;;;2.12;94.91;100633.75;5055637;28;20221;-80
2022/12/05 07:17:11;;;;;;;12.47;11.27;;;;;;;2.14;95.33;100639.81;5061193;28;20202;-81
2022/12/05 07:19:38;;;;;;;12.67;11.37;;;;;;;2.17;94.70;100645.03;5058512;28;20570;-82
2022/12/05 07:22:05;;;;;;;13.07;11.77;;;;;;;2.19;94.61;100646.78;5057443;28;20672;-81
2022/12/05 07:24:33;;;;;;;12.37;11.17;;;;;;;2.18;94.35;100650.22;5058903;28;20736;-82
2022/12/05 07:26:59;;;;;;;12.87;11.50;;;;;;;2.19;94.48;100663.94;5058443;28;20573;-79
2022/12/05 07:29:25;;;;;;;12.33;11.23;;;;;;;2.19;93.82;100669.97;5059752;28;20209;-81
2022/12/05 07:31:54;;;;;;;14.17;12.67;;;;;;;2.18;94.00;100675.06;5059099;28;20206;-82
2022/12/05 07:34:20;;;;;;;13.13;11.93;;;;;;;2.16;94.48;100676.75;5059686;28;20230;-84
2022/12/05 07:36:47;;;;;;;13.73;12.43;;;;;;;2.14;94.37;100669.03;5061139;28;20208;-82
2022/12/05 07:39:17;;;;;;;13.83;12.43;;;;;;;2.10;94.50;100666.34;5059867;28;20197;-83
2022/12/05 07:41:45;;;;;;;12.83;11.63;;;;;;;2.09;95.09;100662.91;5059703;28;20332;-82
2022/12/05 07:44:14;;;;;;;13.37;12.03;;;;;;;2.08;94.92;100656.03;5056557;28;20229;-83
2022/12/05 07:46:40;;;;;;;16.33;12.10;;;;;;;2.09;94.47;100652.59;5056159;28;20206;-83
2022/12/05 07:49:08;;;;;;;13.53;12.23;;;;;;;2.10;94.65;100656.94;5055324;28;20204;-85
2022/12/05 07:51:35;;;;;;;13.77;12.47;;;;;;;2.15;94.75;100654.44;5056486;28;20230;-83
2022/12/05 07:54:02;;;;;;;13.90;12.50;;;;;;;2.13;95.04;100663.84;5060215;28;20214;-84
2022/12/05 07:56:28;;;;;;;14.37;13.17;;;;;;;1.99;95.07;100664.44;5056915;28;20255;-81
2022/12/05 07:58:56;;;;;;;15.03;13.53;;;;;;;1.98;95.46;100656.66;5055738;28;20209;-81
2022/12/05 08:01:25;;;;;;;14.37;12.87;;;;;;;1.99;95.80;100643.84;5055967;28;20201;-83
2022/12/05 08:03:53;;;;;;;15.67;13.83;;;;;;;2.03;95.42;100649.06;5060020;28;20700;-83
2022/12/05 08:06:21;;;;;;;19.67;17.80;;;;;;;2.09;94.92;100647.44;5056975;28;20204;-81
2022/12/05 08:08:48;;;;;;;16.27;14.80;;;;;;;2.10;94.78;100654.34;5055394;28;20613;-79
2022/12/05 08:11:17;;;;;;;14.47;12.93;;;;;;;2.14;94.44;100647.53;5053816;28;20204;-81
2022/12/05 08:13:44;;;;;;;13.30;11.93;;;;;;;2.14;94.07;100666.44;5051348;28;20218;-82
2022/12/05 08:16:15;;;;;;;13.10;11.90;;;;;;;2.17;94.55;100669.06;5054533;28;20545;-82
2022/12/05 08:18:42;;;;;;;13.43;12.13;;;;;;;2.18;94.52;100669.91;5050759;28;20416;-80
2022/12/05 08:21:10;;;;;;;12.87;11.37;;;;;;;2.18;94.28;100680.22;5054292;28;20194;-82
2022/12/05 08:23:38;;;;;;;11.67;10.47;;;;;;;2.12;93.79;100687.84;5055354;28;20848;-82
2022/12/05 08:26:07;;;;;;;13.33;12.10;;;;;;;2.14;93.94;100686.16;5054673;28;20212;-83
2022/12/05 08:28:34;;;;;;;12.27;11.07;;;;;;;2.12;93.95;100683.56;5055641;28;20211;-84
2022/12/05 08:31:05;;;;;;;12.27;11.07;;;;;;;2.10;94.05;100682.69;5055361;28;20672;-82
2022/12/05 08:33:33;;;;;;;13.53;12.13;;;;;;;2.11;94.81;100686.97;5055813;28;20240;-81
2022/12/05 08:36:01;;;;;;;12.63;11.40;;;;;;;2.15;93.94;100685.34;5054650;28;20217;-81
2022/12/05 08:38:27;;;;;;;12.67;11.47;;;;;;;2.13;94.29;100690.44;5055112;28;20240;-80
2022/12/05 08:40:54;;;;;;;13.80;12.50;;;;;;;2.05;94.57;100694.59;5055609;28;20211;-82
2022/12/05 08:43:20;;;;;;;13.03;11.83;;;;;;;2.12;94.54;100687.84;5055215;28;20245;-82
2022/12/05 08:45:49;;;;;;;13.40;12.00;;;;;;;2.12;94.31;100683.56;5056531;28;20230;-82
2022/12/05 08:48:16;;;;;;;13.87;12.47;;;;;;;2.13;94.50;100687.88;5057258;28;20205;-85
2022/12/05 08:50:43;;;;;;;13.17;11.87;;;;;;;2.07;94.56;100689.47;5058121;28;20220;-82
2022/12/05 08:53:10;;;;;;;12.70;11.27;;;;;;;2.08;94.19;100692.09;5057182;28;20228;-83
2022/12/05 08:55:37;;;;;;;13.43;12.17;;;;;;;2.12;94.68;100682.69;5056882;28;20203;-83
2022/12/05 08:58:03;;;;;;;12.90;11.60;;;;;;;2.12;94.23;100685.25;5056832;28;20703;-84
2022/12/05 09:00:30;;;;;;;13.90;12.50;;;;;;;2.10;94.02;100695.56;5064696;28;20202;-85
2022/12/05 09:02:57;;;;;;;14.13;12.73;;;;;;;2.09;93.95;100686.06;5063853;28;20213;-84
2022/12/05 09:05:24;;;;;;;13.70;12.40;;;;;;;2.12;94.29;100687.84;5064697;28;20205;-85
2022/12/05 09:07:52;;;;;;;15.43;13.20;;;;;;;2.10;94.87;100687.81;5067284;28;20205;-86
2022/12/05 09:10:18;;;;;;;14.40;12.90;;;;;;;2.12;94.25;100690.41;5066555;28;20203;-86
2022/12/05 09:12:45;;;;;;;14.70;12.43;;;;;;;2.09;94.76;100692.94;5067088;28;20210;-85
2022/12/05 09:15:13;;;;;;;14.47;12.97;;;;;;;2.06;94.84;100683.47;5068229;28;20198;-85
2022/12/05 09:17:40;;;;;;;14.93;13.63;;;;;;;2.11;95.01;100683.53;5070965;28;20225;-83
2022/12/05 09:20:10;;;;;;;13.97;12.70;;;;;;;2.15;94.14;100683.63;5068405;28;20212;-83
2022/12/05 09:22:37;;;;;;;13.47;12.07;;;;;;;2.13;94.06;100680.16;5071784;28;20201;-83
2022/12/05 09:25:06;;;;;;;15.27;13.80;;;;;;;2.12;94.65;100687.84;5073245;28;20232;-83
2022/12/05 09:27:32;;;;;;;14.80;13.40;;;;;;;2.16;94.26;100680.22;5073810;28;20207;-84
2022/12/05 09:29:59;;;;;;;13.83;12.53;;;;;;;2.23;94.24;100688.06;5072237;28;20215;-82
2022/12/05 09:32:25;;;;;;;15.10;13.60;;;;;;;2.26;93.90;100695.81;5062429;28;20210;-84
2022/12/05 09:34:53;;;;;;;17.17;14.40;;;;;;;2.29;94.00;100698.47;5059122;28;20238;-83
2022/12/05 09:37:19;;;;;;;15.33;13.77;;;;;;;2.31;93.48;100701.94;5062086;28;20211;-84
2022/12/05 09:39:45;;;;;;;17.30;14.53;;;;;;;2.31;93.32;100707.94;5065477;28;20211;-85
2022/12/05 09:42:29;;;;;;;26.00;19.83;;;;;;;2.32;93.32;100709.72;5056191;28;20214;-84
2022/12/05 09:45:13;;;;;;;28.67;20.20;;;;;;;2.33;93.40;100705.41;5057643;28;20730;-85
2022/12/05 09:47:49;;;;;;;18.00;16.00;;;;;;;2.20;93.53;100719.78;5058234;28;20400;-84
2022/12/05 09:50:21;;;;;;;15.87;14.37;;;;;;;2.29;93.67;100712.22;5056368;28;20202;-85
2022/12/05 09:53:21;;;;;;;15.70;14.07;;;;;;;2.34;93.22;100712.31;5059564;28;20227;-85
2022/12/05 09:55:51;;;;;;;13.10;11.93;;;;;;;2.32;93.39;100717.44;5012207;28;20209;-82
2022/12/05 09:58:39;;;;;;;13.30;11.93;;;;;;;2.33;93.65;100716.56;5055901;28;20203;-84
2022/12/05 10:01:21;;;;;;;13.13;11.83;;;;;;;2.36;93.31;100718.38;5056858;28;20206;-83
2022/12/05 10:04:10;;;;;;;13.03;11.83;;;;;;;2.30;93.59;100715.66;5054870;28;20709;-81
2022/12/05 10:06:41;;;;;;;13.23;11.90;;;;;;;2.21;93.60;100700.91;5054316;28;20207;-84
2022/12/05 10:09:18;;;;;;;13.83;12.43;;;;;;;2.29;94.08;100695.91;5055402;28;20206;-85
2022/12/05 10:11:53;;;;;;;12.73;11.63;;;;;;;2.27;94.19;100692.44;5055348;28;20250;-84
2022/12/05 10:14:31;;;;;;;14.07;12.67;;;;;;;2.33;93.98;100689.97;5058494;28;20225;-84
2022/12/05 10:17:07;;;;;;;15.33;13.97;;;;;;;2.36;93.38;100695.19;5057428;28;20201;-84
2022/12/05 10:19:35;;;;;;;145.37;57.43;;;;;;;2.41;94.09;100684.94;5060473;28;20217;-85
2022/12/05 10:22:09;;;;;;;16.97;15.37;;;;;;;2.43;95.00;100666.09;5058903;28;20726;-84
2022/12/05 10:24:41;;;;;;;14.87;13.43;;;;;;;2.46;95.64;100639.50;5063663;28;20234;-83
2022/12/05 10:27:12;;;;;;;14.73;13.33;;;;;;;2.48;95.72;100636.16;5068353;28;20213;-83
2022/12/05 10:29:46;;;;;;;14.43;13.03;;;;;;;2.51;96.10;100622.44;4355395;28;10000693;-83
2022/12/05 10:32:18;;;;;;;15.67;14.17;;;;;;;2.50;96.09;100616.44;5044159;28;20199;-81
2022/12/05 10:34:45;;;;;;;14.43;13.10;;;;;;;2.53;96.16;100603.56;5056079;28;20716;-83
2022/12/05 10:37:29;;;;;;;14.20;12.70;;;;;;;2.52;96.09;100612.16;5057454;28;20206;-86
2022/12/05 10:40:12;;;;;;;13.33;12.13;;;;;;;2.56;96.60;100605.34;5059524;28;20293;-84
2022/12/05 10:42:38;;;;;;;14.03;12.80;;;;;;;2.51;96.32;100604.41;5070240;23;20197;-76
2022/12/05 10:45:13;;;;;;;19.77;14.80;;;;;;;2.51;96.78;100599.25;5090635;28;20228;-75
2022/12/05 10:47:40;;;;;;;14.23;12.83;;;;;;;2.55;96.99;100598.44;5091504;28;20235;-75
2022/12/05 10:50:20;;;;;;;15.13;13.50;;;;;;;2.48;96.26;100609.50;5090992;28;20205;-75
2022/12/05 10:52:47;;;;;;;12.33;11.23;;;;;;;2.52;96.49;100599.28;5091497;28;20600;-75
2022/12/05 10:55:17;;;;;;;13.50;12.10;;;;;;;2.49;95.98;100609.53;5091372;28;20214;-76
2022/12/05 10:57:50;;;;;;;14.73;12.97;;;;;;;2.47;97.26;100602.63;5091476;28;20239;-75
2022/12/05 11:00:21;;;;;;;14.07;12.57;;;;;;;2.45;97.30;100599.16;5091068;28;20691;-75
2022/12/05 11:02:49;;;;;;;24.87;18.07;;;;;;;2.53;96.70;100585.53;5091321;28;20211;-75
2022/12/05 11:05:27;;;;;;;20.10;18.13;;;;;;;2.53;96.28;100607.88;5090737;28;20234;-74
2022/12/05 11:07:55;;;;;;;17.23;15.43;;;;;;;2.62;96.04;100609.72;5091007;28;20590;-75
2022/12/05 11:10:23;;;;;;;13.13;11.90;;;;;;;2.60;96.15;100612.28;5090758;28;20575;-75
2022/12/05 11:12:50;;;;;;;12.33;11.13;;;;;;;2.62;95.60;100618.34;5090420;28;20208;-75
2022/12/05 11:15:24;;;;;;;14.10;12.70;;;;;;;2.50;96.99;100606.13;5090790;28;20204;-76
2022/12/05 11:17:52;;;;;;;14.10;12.70;;;;;;;2.55;97.47;100581.28;5090522;28;20611;-76
2022/12/05 11:20:38;;;;;;;13.07;11.87;;;;;;;2.67;96.66;100577.16;5091340;28;20216;-76
2022/12/05 11:23:21;;;;;;;13.00;11.80;;;;;;;2.64;96.84;100583.16;5091055;28;20396;-76
2022/12/05 11:25:48;;;;;;;11.83;10.73;;;;;;;2.64;96.75;100588.31;5090671;28;20234;-76
2022/12/05 11:28:34;;;;;;;11.93;10.83;;;;;;;2.68;95.83;100595.25;5090959;28;20225;-75
2022/12/05 11:31:04;;;;;;;12.23;11.00;;;;;;;2.71;95.72;100603.00;5091071;28;20287;-76
2022/12/05 11:33:32;;;;;;;13.33;12.03;;;;;;;2.74;95.43;100612.50;5090352;28;20204;-76
2022/12/05 11:36:06;;;;;;;11.20;10.20;;;;;;;2.75;95.47;100621.97;5090345;28;20682;-73